Time;durP1;ratioP1;P1;durP2;ratioP2;P2;SDS_P1;SDS_P2;PMS_P1;PMS_P2;Temp;Humidity;BMP_temperature;BMP_pressure;BME280_temperature;BME280_humidity;BME280_pressure;Samples;Min_cycle;Max_cycle;Signal;HPM_P1;HPM_P2
2022/11/18 00:05:16;;;;;;;0.20;0.00;;;16.40;99.90;;;;;;25661533;23;20364;-72
2022/11/18 00:15:19;;;;;;;0.20;0.10;;;16.20;99.90;;;;;;25659777;23;20399;-72
2022/11/18 00:25:24;;;;;;;0.20;0.10;;;16.20;99.90;;;;;;25659833;23;20376;-71
2022/11/18 00:35:28;;;;;;;0.20;0.00;;;16.40;99.90;;;;;;25609841;23;20368;-71
2022/11/18 00:45:33;;;;;;;0.20;0.00;;;16.30;99.90;;;;;;25634072;23;20409;-71
2022/11/18 00:55:39;;;;;;;0.20;0.10;;;16.60;99.90;;;;;;25634339;23;20478;-71
2022/11/18 01:05:47;;;;;;;0.20;0.00;;;16.40;99.90;;;;;;25632244;23;20368;-71
2022/11/18 01:15:54;;;;;;;0.20;0.10;;;15.90;99.90;;;;;;25633506;23;20379;-71
2022/11/18 01:26:08;;;;;;;0.20;0.00;;;15.90;99.90;;;;;;25631950;23;20390;-71
2022/11/18 01:36:16;;;;;;;0.20;0.10;;;15.30;99.90;;;;;;25630433;23;20376;-71
2022/11/18 01:46:23;;;;;;;0.20;0.10;;;15.50;99.90;;;;;;25630512;23;20368;-72
2022/11/18 01:56:37;;;;;;;0.20;0.00;;;15.20;99.90;;;;;;25632134;23;20391;-71
2022/11/18 02:06:43;;;;;;;0.20;0.10;;;15.10;99.90;;;;;;25656248;23;20364;-70
2022/11/18 02:17:02;;;;;;;0.20;0.10;;;14.70;99.90;;;;;;25658555;23;20378;-70
2022/11/18 02:27:41;;;;;;;0.20;0.10;;;14.60;99.90;;;;;;25637785;23;20371;-70
2022/11/18 02:37:50;;;;;;;0.20;0.00;;;14.30;99.90;;;;;;25629822;23;20384;-70
2022/11/18 02:47:56;;;;;;;0.20;0.07;;;14.20;99.90;;;;;;25662968;23;20383;-70
2022/11/18 02:58:03;;;;;;;0.20;0.10;;;13.80;99.90;;;;;;25636462;23;20375;-71
2022/11/18 03:08:13;;;;;;;0.20;0.00;;;13.70;99.90;;;;;;25635519;23;20367;-71
2022/11/18 03:18:26;;;;;;;0.20;0.00;;;13.80;99.90;;;;;;25637692;23;20387;-71
2022/11/18 03:28:35;;;;;;;0.20;0.10;;;13.70;99.90;;;;;;25637217;23;20378;-72
2022/11/18 03:38:47;;;;;;;0.20;0.10;;;13.50;99.90;;;;;;25662203;23;20442;-71
2022/11/18 03:48:54;;;;;;;0.20;0.10;;;13.40;99.90;;;;;;25661247;23;20371;-71
2022/11/18 03:59:05;;;;;;;0.20;0.10;;;13.20;99.90;;;;;;25661355;23;20407;-72
2022/11/18 04:09:13;;;;;;;0.20;0.10;;;12.80;99.90;;;;;;25659944;23;20364;-71
2022/11/18 04:19:19;;;;;;;0.20;0.10;;;12.70;99.90;;;;;;25632144;23;20387;-71
2022/11/18 04:29:26;;;;;;;0.20;0.10;;;12.60;99.90;;;;;;25634916;23;20443;-71
2022/11/18 04:39:31;;;;;;;0.20;0.08;;;12.60;99.90;;;;;;25659324;23;20391;-72
2022/11/18 04:49:36;;;;;;;0.20;0.10;;;12.90;99.90;;;;;;25633626;23;20364;-72
2022/11/18 04:59:41;;;;;;;0.20;0.10;;;13.20;99.90;;;;;;25659094;23;20387;-72
2022/11/18 05:09:45;;;;;;;0.20;0.10;;;13.50;99.90;;;;;;25655230;23;20360;-71
2022/11/18 05:19:50;;;;;;;0.20;0.10;;;13.50;99.90;;;;;;25658837;23;20367;-71
2022/11/18 05:29:54;;;;;;;0.20;0.10;;;13.30;99.90;;;;;;25631652;23;20368;-73
2022/11/18 05:39:59;;;;;;;0.20;0.10;;;13.50;99.90;;;;;;25656827;23;20407;-71
2022/11/18 05:50:03;;;;;;;0.20;0.10;;;13.50;99.90;;;;;;25655816;23;20375;-72
2022/11/18 06:00:09;;;;;;;0.20;0.10;;;13.60;99.90;;;;;;25636959;23;20379;-71
2022/11/18 06:10:18;;;;;;;0.20;0.10;;;13.60;99.90;;;;;;25663890;23;20440;-70
2022/11/18 06:20:23;;;;;;;0.20;0.10;;;13.80;99.90;;;;;;25639940;23;20383;-70
2022/11/18 06:30:27;;;;;;;0.20;0.10;;;13.90;99.90;;;;;;25663956;23;20371;-70
2022/11/18 06:40:34;;;;;;;0.20;0.10;;;14.00;99.90;;;;;;25632144;23;20377;-72
2022/11/18 06:50:37;;;;;;;0.20;0.10;;;14.30;99.90;;;;;;25657423;23;20407;-72
2022/11/18 07:00:43;;;;;;;0.20;0.10;;;14.50;99.90;;;;;;25623030;23;20395;-70
2022/11/18 07:10:52;;;;;;;0.20;0.10;;;14.60;99.90;;;;;;25653537;23;20364;-71
2022/11/18 07:21:01;;;;;;;0.20;0.10;;;14.80;99.90;;;;;;25658796;23;20376;-71
2022/11/18 07:31:07;;;;;;;0.20;0.10;;;14.90;99.90;;;;;;25659422;23;20375;-71
2022/11/18 07:41:14;;;;;;;0.20;0.00;;;15.00;99.90;;;;;;25631242;23;20379;-72
2022/11/18 07:51:20;;;;;;;0.20;0.10;;;15.20;99.90;;;;;;25632019;23;20390;-71
2022/11/18 08:01:27;;;;;;;0.20;0.10;;;15.40;99.90;;;;;;25658015;23;20376;-72
2022/11/18 08:11:32;;;;;;;0.20;0.10;;;15.70;99.90;;;;;;25627744;23;20380;-71
2022/11/18 08:21:38;;;;;;;0.20;0.05;;;15.80;99.90;;;;;;25605343;23;20383;-73
2022/11/18 08:31:42;;;;;;;0.20;0.10;;;15.90;99.90;;;;;;25630232;23;20383;-71
2022/11/18 08:41:47;;;;;;;0.20;0.10;;;16.30;99.90;;;;;;25627833;23;20364;-73
2022/11/18 08:51:51;;;;;;;0.20;0.10;;;16.60;99.90;;;;;;25629574;23;20376;-71
2022/11/18 09:01:56;;;;;;;0.20;0.08;;;16.40;99.90;;;;;;25654829;23;20383;-72
2022/11/18 09:12:00;;;;;;;0.20;0.00;;;16.60;99.90;;;;;;25656903;23;20409;-72
2022/11/18 09:22:06;;;;;;;0.20;0.10;;;16.70;99.90;;;;;;25654515;23;20367;-72
2022/11/18 09:32:10;;;;;;;0.20;0.10;;;17.10;99.90;;;;;;25532022;23;20388;-71
2022/11/18 09:42:33;;;;;;;0.20;0.10;;;17.80;99.90;;;;;;25532140;23;20400;-73
2022/11/18 09:52:42;;;;;;;0.20;0.10;;;17.90;99.90;;;;;;25529221;23;20460;-71
2022/11/18 10:02:55;;;;;;;0.20;0.03;;;18.30;99.90;;;;;;25527481;23;20365;-74
2022/11/18 10:13:08;;;;;;;0.20;0.03;;;18.50;99.90;;;;;;25501909;23;20437;-74
2022/11/18 10:23:20;;;;;;;0.20;0.10;;;18.20;99.90;;;;;;25533734;23;20362;-73
2022/11/18 10:33:27;;;;;;;0.20;0.10;;;18.10;99.90;;;;;;25653018;23;20376;-77
2022/11/18 10:43:50;;;;;;;0.20;0.03;;;17.90;99.90;;;;;;25631329;23;20463;-74
2022/11/18 10:54:14;;;;;;;0.20;0.10;;;17.70;99.90;;;;;;25634705;23;20375;-73
2022/11/18 11:04:23;;;;;;;0.20;0.00;;;17.40;99.90;;;;;;25634463;23;20364;-74
2022/11/18 11:14:31;;;;;;;0.20;0.03;;;17.40;99.90;;;;;;25660176;23;20375;-74
2022/11/18 11:24:37;;;;;;;0.20;0.10;;;17.30;99.90;;;;;;25607758;23;20372;-74
2022/11/18 11:34:51;;;;;;;0.20;0.10;;;17.70;99.90;;;;;;25630696;23;20388;-74
2022/11/18 11:45:07;;;;;;;0.20;0.10;;;17.80;99.90;;;;;;25631725;23;20368;-74
2022/11/18 11:55:18;;;;;;;0.20;0.00;;;17.80;99.90;;;;;;25657519;23;20379;-74
2022/11/18 12:05:32;;;;;;;0.20;0.10;;;17.90;99.90;;;;;;25633235;23;20375;-74
2022/11/18 12:15:52;;;;;;;0.20;0.10;;;17.90;99.90;;;;;;25606187;23;20372;-75
2022/11/18 12:26:01;;;;;;;0.20;0.10;;;17.80;99.90;;;;;;25631405;23;20375;-74
2022/11/18 12:36:05;;;;;;;0.20;0.10;;;17.90;99.90;;;;;;25655506;23;20375;-74
2022/11/18 12:46:57;;;;;;;0.20;0.03;;;17.50;99.90;;;;;;25626701;23;20752;-74
2022/11/18 12:57:18;;;;;;;0.20;0.00;;;17.50;99.90;;;;;;25599986;23;20436;-73
2022/11/18 13:17:53;;;;;;;0.20;0.10;;;16.80;99.90;;;;;;25653082;23;20368;-74
2022/11/18 13:28:08;;;;;;;0.20;0.00;;;16.90;99.90;;;;;;25628889;23;20402;-73
2022/11/18 13:38:22;;;;;;;0.20;0.10;;;16.70;99.90;;;;;;25616146;23;20621;-73
2022/11/18 13:48:34;;;;;;;0.20;0.10;;;16.30;99.90;;;;;;25649405;23;20364;-73
2022/11/18 13:58:41;;;;;;;0.20;0.10;;;16.30;99.90;;;;;;25652125;23;20371;-75
2022/11/18 14:09:16;;;;;;;0.20;0.08;;;15.30;99.90;;;;;;25655140;23;20371;-74
2022/11/18 14:19:32;;;;;;;0.20;0.07;;;15.10;99.90;;;;;;25633342;23;20379;-73
2022/11/18 14:29:37;;;;;;;0.20;0.10;;;15.70;99.90;;;;;;25633632;23;20371;-74
2022/11/18 14:39:41;;;;;;;0.20;0.00;;;16.30;99.90;;;;;;25634480;23;20376;-73
2022/11/18 14:49:49;;;;;;;0.20;0.10;;;15.20;99.90;;;;;;25633867;23;20371;-74
2022/11/18 14:59:52;;;;;;;0.20;0.10;;;15.00;99.90;;;;;;25658482;23;20367;-74
2022/11/18 15:09:58;;;;;;;0.20;0.10;;;15.50;99.90;;;;;;25658824;23;20383;-75
2022/11/18 15:20:03;;;;;;;0.20;0.10;;;15.80;99.90;;;;;;25625076;23;20398;-74
2022/11/18 15:30:11;;;;;;;0.20;0.10;;;15.80;99.90;;;;;;25631540;23;20589;-74
2022/11/18 15:40:15;;;;;;;0.20;0.00;;;15.30;99.90;;;;;;25600297;23;20383;-75
2022/11/18 15:50:22;;;;;;;0.20;0.10;;;15.00;99.90;;;;;;25630360;23;20376;-73
2022/11/18 16:00:26;;;;;;;0.20;0.10;;;14.80;99.90;;;;;;25628033;23;20390;-73
2022/11/18 16:21:07;;;;;;;0.20;0.10;;;14.70;99.90;;;;;;25393476;23;20379;-74
2022/11/18 16:41:34;;;;;;;0.20;0.10;;;14.70;99.90;;;;;;25621751;23;20415;-73
2022/11/18 16:51:42;;;;;;;0.20;0.00;;;14.60;99.90;;;;;;25627542;23;20371;-75
2022/11/18 17:01:46;;;;;;;0.20;0.03;;;14.30;99.90;;;;;;25649869;23;20398;-73
2022/11/18 17:11:53;;;;;;;0.20;0.10;;;14.60;99.90;;;;;;25651805;23;21137;-74
2022/11/18 17:21:56;;;;;;;0.20;0.10;;;14.60;99.90;;;;;;25652114;23;20386;-73
2022/11/18 17:32:02;;;;;;;0.20;0.03;;;14.10;99.90;;;;;;25654541;23;20372;-73
2022/11/18 17:42:16;;;;;;;0.20;0.10;;;13.80;99.90;;;;;;25655267;23;20378;-73
2022/11/18 17:52:21;;;;;;;0.20;0.10;;;13.50;99.90;;;;;;25625840;23;20367;-74
2022/11/18 18:02:25;;;;;;;0.20;0.10;;;13.40;99.90;;;;;;25652839;23;20364;-72
2022/11/18 18:22:55;;;;;;;0.20;0.10;;;13.20;99.90;;;;;;25628579;23;20513;-72
2022/11/18 18:33:00;;;;;;;0.20;0.00;;;13.10;99.90;;;;;;25651908;23;20375;-72
2022/11/18 18:43:04;;;;;;;0.20;0.10;;;12.90;99.90;;;;;;25653773;23;20367;-73
2022/11/18 18:53:13;;;;;;;0.20;0.10;;;13.20;99.90;;;;;;25651827;23;20385;-72
2022/11/18 19:03:17;;;;;;;0.20;0.10;;;13.10;99.90;;;;;;25629034;23;20594;-73
2022/11/18 19:13:22;;;;;;;0.20;0.10;;;13.20;99.90;;;;;;25621491;23;20378;-72
2022/11/18 19:23:30;;;;;;;0.20;0.10;;;12.90;99.90;;;;;;25649241;23;20427;-74
2022/11/18 19:33:35;;;;;;;0.20;0.10;;;12.80;99.90;;;;;;25650058;23;20549;-72
2022/11/18 19:43:39;;;;;;;0.20;0.10;;;12.90;99.90;;;;;;25648693;23;20458;-72
2022/11/18 19:53:45;;;;;;;0.20;0.10;;;13.00;99.90;;;;;;25650080;23;20435;-73
2022/11/18 20:03:52;;;;;;;0.20;0.10;;;12.60;99.90;;;;;;25645511;23;20368;-72
2022/11/18 20:13:58;;;;;;;0.20;0.10;;;12.50;99.90;;;;;;25623840;23;20383;-73
2022/11/18 20:24:04;;;;;;;0.20;0.10;;;12.40;99.90;;;;;;25649091;23;20395;-72
2022/11/18 20:34:12;;;;;;;0.20;0.10;;;12.40;99.90;;;;;;25619773;23;20390;-73
2022/11/18 20:44:16;;;;;;;0.20;0.10;;;12.50;99.90;;;;;;25619019;23;20478;-73
2022/11/18 20:54:22;;;;;;;0.20;0.08;;;12.80;99.90;;;;;;25647640;23;20435;-74
2022/11/18 21:04:26;;;;;;;0.20;0.10;;;12.80;99.90;;;;;;25647956;23;20463;-73
2022/11/18 21:14:35;;;;;;;0.20;0.05;;;12.90;99.90;;;;;;25645948;23;20767;-72
2022/11/18 21:24:42;;;;;;;0.20;0.10;;;12.70;99.90;;;;;;25618862;23;20375;-72
2022/11/18 21:45:17;;;;;;;0.20;0.10;;;12.60;99.90;;;;;;25620255;23;20474;-73
2022/11/18 21:55:25;;;;;;;0.20;0.10;;;12.60;99.90;;;;;;25621314;23;20390;-74
2022/11/18 22:05:36;;;;;;;0.20;0.00;;;12.50;99.90;;;;;;25593534;23;20426;-73
2022/11/18 22:16:02;;;;;;;0.20;0.10;;;12.60;99.90;;;;;;25622809;23;20380;-72
2022/11/18 22:26:12;;;;;;;0.20;0.10;;;12.80;99.90;;;;;;25621956;23;20371;-74
2022/11/18 22:36:25;;;;;;;0.20;0.10;;;12.80;99.90;;;;;;25621405;23;20439;-73
2022/11/18 22:46:36;;;;;;;0.20;0.00;;;12.60;99.90;;;;;;25628894;23;20576;-74
2022/11/18 22:56:41;;;;;;;0.20;0.10;;;12.60;99.90;;;;;;25629033;23;20379;-72
2022/11/18 23:06:48;;;;;;;0.20;0.10;;;12.60;99.90;;;;;;25656212;23;20380;-72
2022/11/18 23:16:53;;;;;;;0.20;0.07;;;12.70;99.90;;;;;;25629381;23;20597;-72
2022/11/18 23:27:00;;;;;;;0.20;0.10;;;12.70;99.90;;;;;;25654903;23;20368;-73
2022/11/18 23:37:05;;;;;;;0.20;0.10;;;12.80;99.90;;;;;;25655575;23;20379;-71
2022/11/18 23:47:09;;;;;;;0.20;0.10;;;12.90;99.90;;;;;;25654908;23;20395;-73
2022/11/18 23:57:14;;;;;;;0.20;0.10;;;12.90;99.90;;;;;;25654891;23;20446;-73
